Aérodrome :
LOGIN :

S'inscrire | Disclaimer

   EN    FR    IT 

 










Légende :    VFR   VFR Marginal   IFR   IFR Intensif   IFR Très Intensif
Visi : 
Plafond : 
>= 8 km
>= 3000ft
5 à 8 km
1000 à 3000 ft
1500m à 5 km
500 à 1000 ft
800 à 1500m
200 à 500 ft
< 800m
< 200 ft
Symboles :   Orages  Brouillard  Fortes neiges  Fortes précipitations  Vent > 20 kt
SIGMETs :   Divers  Orages  Givrage  Turbulence  Onde Orograph.  Cendres Volcan.







- Altitude de l'aérodrome : 1416 ft
- Code IATA : ZRH


LSZH - Zurich

DERNIER METAR :
  • 180320Z VRB01KT 0200 R14/0550N R16/0550N R28/0550N R34/0700N FG BKN001 07/07 Q1019 NOSIG

METARs EXPIRÉS :
  • 180250Z 33003KT 0500 R14/0750N R16/0900U R28/0650N R34/0800U FG SCT001 07/07 Q1019 BECMG 0200
  • 180220Z 33002KT 0300 R14/0800U R16/0600U R28/P2000N R34/P2000N PRFG SCT001 07/07 Q1019 NOSIG
  • 180150Z 00000KT 0300 R14/0500N R16/0800D R28/P2000N R34/P2000N PRFG SCT001 07/07 Q1019 NOSIG
  • 180120Z 00000KT 0600 R14/0550D R16/0800U R28/P2000N R34/0900U PRFG FEW001 SCT240 07/07 Q1019 BECMG 0300 FG
  • 180050Z VRB02KT 5000 2000N R14/1200U R16/0800U R28/1200U R34/1100U BCFG VCFG FEW001 07/06 Q1019 BECMG 0300 FG

TAF TAF LSZH
Valide du 18 à 03h jusqu'au 19 à 09h UTC


180225Z 1803/1909 VRB03KT 0300 PRFG SCT001 TX19/1815Z TN05/1805Z TN06/1905Z
BECMG 1803/1805 0300 FG VV001
BECMG 1807/1809 3000 BR SCT002
BECMG 1809/1811 CAVOK
BECMG 1819/1822 8000 MIFG
BECMG 1822/1901 3000
PROB40
TEMPO 1900/1906 0500 PRFG VV002
BECMG 1906/1909 CAVOK
ATIS : +41 43 816 2295 (DEP) +41 43 816 2294 (ARR)
Pas de NOTAMs connus pour ce terrain.



MET'MAP, la Météo Aéronautique d'un coup d'oeil ! - Copyright ORBIFLY Décembre 2007 - Disclaimer

ORBIFLY MET'MAP TEAM :

Programmation & Développement : Alexandra Zaïnal
Conception & Développement : Baudouin d'Aumeries
Co-Programmation & Développement : Marc-Olivier Méhu
Soutien technique & logistique : Manuel Goepfert

Contact : metmap@orbifly.com




SOURCES & CREDITS :

   NOAA